Time;durP1;ratioP1;P1;durP2;ratioP2;P2;SDS_P1;SDS_P2;PMS_P1;PMS_P2;Temp;Humidity;BMP_temperature;BMP_pressure;BME280_temperature;BME280_humidity;BME280_pressure;Samples;Min_cycle;Max_cycle;Signal;HPM_P1;HPM_P2
2022/07/31 00:02:19;;;;;;;0.83;0.83;;;;;;;16.98;100.00;100643.25;5073276;28;20186;-77
2022/07/31 00:04:44;;;;;;;0.43;0.43;;;;;;;17.00;100.00;100645.66;5071846;28;20218;-76
2022/07/31 00:07:10;;;;;;;0.87;0.87;;;;;;;16.99;100.00;100644.06;5072948;28;20451;-76
2022/07/31 00:09:35;;;;;;;0.53;0.53;;;;;;;16.97;100.00;100636.13;5071649;28;20178;-76
2022/07/31 00:12:01;;;;;;;2.10;2.00;;;;;;;16.98;100.00;100646.00;5074113;28;20746;-76
2022/07/31 00:14:28;;;;;;;0.70;0.70;;;;;;;16.97;100.00;100643.59;5074377;28;20202;-76
2022/07/31 00:16:53;;;;;;;3.50;2.70;;;;;;;16.98;100.00;100639.69;5074028;28;20178;-76
2022/07/31 00:19:20;;;;;;;1.67;1.57;;;;;;;16.97;100.00;100644.41;5071868;28;20189;-76
2022/07/31 00:21:45;;;;;;;0.77;0.77;;;;;;;16.98;100.00;100646.00;5071800;28;20170;-77
2022/07/31 00:24:10;;;;;;;1.20;1.20;;;;;;;16.98;100.00;100654.28;5073378;28;20224;-76
2022/07/31 00:26:36;;;;;;;0.70;0.70;;;;;;;16.98;100.00;100654.28;5071634;28;20741;-76
2022/07/31 00:29:02;;;;;;;0.70;0.70;;;;;;;16.97;100.00;100655.44;5072667;28;20171;-76
2022/07/31 00:31:27;;;;;;;1.13;1.03;;;;;;;16.98;100.00;100659.00;5071866;28;20565;-76
2022/07/31 00:33:52;;;;;;;0.87;0.83;;;;;;;16.97;100.00;100654.63;5072056;28;20536;-77
2022/07/31 00:36:18;;;;;;;0.40;0.40;;;;;;;16.98;100.00;100653.50;5071361;28;20201;-76
2022/07/31 00:38:43;;;;;;;0.53;0.53;;;;;;;16.98;100.00;100643.25;5072525;28;20216;-76
2022/07/31 00:41:09;;;;;;;0.30;0.30;;;;;;;17.01;100.00;100650.03;5072934;28;20182;-76
2022/07/31 00:43:34;;;;;;;0.30;0.30;;;;;;;17.00;100.00;100640.94;5071224;28;20227;-76
2022/07/31 00:45:59;;;;;;;0.60;0.60;;;;;;;17.02;100.00;100635.88;5071935;28;20685;-76
2022/07/31 00:48:25;;;;;;;0.90;0.87;;;;;;;17.04;100.00;100635.50;5070842;28;20216;-76
2022/07/31 00:50:51;;;;;;;0.73;0.73;;;;;;;17.07;100.00;100638.41;5072194;28;20658;-76
2022/07/31 00:53:16;;;;;;;0.40;0.40;;;;;;;17.05;100.00;100640.69;5072557;28;20202;-76
2022/07/31 00:55:41;;;;;;;0.30;0.30;;;;;;;17.05;100.00;100646.19;5072366;28;20573;-76
2022/07/31 00:58:07;;;;;;;0.30;0.30;;;;;;;17.07;100.00;100634.81;5071904;28;20253;-76
2022/07/31 01:00:32;;;;;;;1.07;1.00;;;;;;;17.06;100.00;100634.00;5072739;28;20182;-77
2022/07/31 01:02:57;;;;;;;0.43;0.43;;;;;;;17.06;100.00;100634.00;5070867;28;20178;-76
2022/07/31 01:05:23;;;;;;;0.70;0.53;;;;;;;17.05;100.00;100635.16;5071994;28;20198;-76
2022/07/31 01:07:48;;;;;;;1.03;0.47;;;;;;;17.05;100.00;100635.16;5071945;28;20179;-76
2022/07/31 01:10:37;;;;;;;0.43;0.43;;;;;;;17.04;100.00;100638.28;5071827;28;20171;-75
2022/07/31 01:13:10;;;;;;;0.23;0.23;;;;;;;17.03;100.00;100634.72;5071325;28;20190;-76
2022/07/31 01:15:37;;;;;;;0.00;0.00;;;;;;;17.03;100.00;100633.91;5070136;28;20231;-76
2022/07/31 01:18:04;;;;;;;0.10;0.07;;;;;;;17.05;100.00;100637.91;5071197;28;20720;-77
2022/07/31 01:20:32;;;;;;;0.00;0.00;;;;;;;17.07;100.00;100634.81;5070217;28;20182;-76
2022/07/31 01:23:10;;;;;;;0.10;0.10;;;;;;;17.07;100.00;100638.41;5070223;28;20599;-76
2022/07/31 01:25:54;;;;;;;0.33;0.33;;;;;;;17.07;100.00;100624.59;5070398;28;20201;-76
2022/07/31 01:28:52;;;;;;;0.07;0.07;;;;;;;17.04;100.00;100632.75;5071320;28;20165;-77
2022/07/31 01:31:34;;;;;;;0.00;0.00;;;;;;;16.97;100.00;100625.09;5071684;28;20167;-76
2022/07/31 01:34:10;;;;;;;0.23;0.23;;;;;;;16.95;100.00;100628.19;5071523;28;20227;-76
2022/07/31 01:36:40;;;;;;;0.33;0.33;;;;;;;16.92;100.00;100625.31;5070070;28;20193;-76
2022/07/31 01:39:06;;;;;;;0.00;0.00;;;;;;;16.88;100.00;100624.41;5071246;28;20245;-76
2022/07/31 01:41:39;;;;;;;0.40;0.40;;;;;;;16.86;100.00;100637.75;5071396;28;20278;-76
2022/07/31 01:44:07;;;;;;;0.00;0.00;;;;;;;16.83;100.00;100642.03;5070688;28;20171;-77
2022/07/31 01:46:34;;;;;;;0.00;0.00;;;;;;;16.78;100.00;100636.75;5070942;28;20233;-77
2022/07/31 01:49:01;;;;;;;0.50;0.50;;;;;;;16.74;100.00;100632.25;5069636;28;20263;-76
2022/07/31 01:51:29;;;;;;;0.53;0.53;;;;;;;16.66;100.00;100637.53;5071144;28;20590;-76
2022/07/31 01:53:54;;;;;;;0.17;0.17;;;;;;;16.60;100.00;100632.59;5071280;28;20175;-75
2022/07/31 01:56:20;;;;;;;0.40;0.40;;;;;;;16.55;100.00;100624.56;5071130;28;20701;-76
2022/07/31 01:58:48;;;;;;;0.77;0.77;;;;;;;16.49;100.00;100634.22;5070592;28;20595;-76
2022/07/31 02:01:15;;;;;;;0.00;0.00;;;;;;;16.49;100.00;100631.47;5069768;28;20268;-76
2022/07/31 02:03:43;;;;;;;0.00;0.00;;;;;;;16.48;100.00;100624.34;5071040;28;20630;-76
2022/07/31 02:06:09;;;;;;;0.00;0.00;;;;;;;16.48;100.00;100624.34;5070869;28;20669;-75
2022/07/31 02:08:35;;;;;;;0.53;0.53;;;;;;;16.44;100.00;100617.91;5070586;28;20187;-76
2022/07/31 02:11:01;;;;;;;0.00;0.00;;;;;;;16.34;100.00;100627.44;5071408;28;20577;-76
2022/07/31 02:13:28;;;;;;;0.00;0.00;;;;;;;16.31;100.00;100620.69;5070857;28;20178;-76
2022/07/31 02:15:56;;;;;;;0.00;0.00;;;;;;;16.31;100.00;100628.16;5070889;28;20202;-77
2022/07/31 02:18:23;;;;;;;0.00;0.00;;;;;;;16.33;100.00;100623.09;5070422;28;20537;-76
2022/07/31 02:20:50;;;;;;;0.00;0.00;;;;;;;16.36;100.00;100628.72;5070846;28;20175;-76
2022/07/31 02:23:16;;;;;;;0.00;0.00;;;;;;;16.41;100.00;100626.88;5070838;28;20194;-76
2022/07/31 02:25:43;;;;;;;0.00;0.00;;;;;;;16.45;100.00;100631.34;5069302;28;20205;-76
2022/07/31 02:28:12;;;;;;;0.00;0.00;;;;;;;16.48;100.00;100619.63;5069036;28;20178;-76
2022/07/31 02:30:41;;;;;;;0.00;0.00;;;;;;;16.48;100.00;100627.09;5070778;28;20246;-77
2022/07/31 02:33:10;;;;;;;0.00;0.00;;;;;;;16.45;100.00;100620.31;5070729;28;20182;-76
2022/07/31 02:35:37;;;;;;;0.00;0.00;;;;;;;16.39;100.00;100621.72;5071022;28;20175;-76
2022/07/31 02:38:03;;;;;;;0.30;0.30;;;;;;;16.28;100.00;100626.88;5069429;28;20174;-76
2022/07/31 02:40:29;;;;;;;0.00;0.00;;;;;;;16.19;100.00;100623.44;5070440;28;20217;-76
2022/07/31 02:42:55;;;;;;;0.00;0.00;;;;;;;16.10;100.00;100632.97;5070597;28;20175;-76
2022/07/31 02:45:21;;;;;;;0.00;0.00;;;;;;;16.00;100.00;100624.00;5068468;28;20268;-77
2022/07/31 02:47:47;;;;;;;0.00;0.00;;;;;;;15.89;100.00;100622.03;5070475;28;20209;-77
2022/07/31 02:50:13;;;;;;;0.00;0.00;;;;;;;15.87;100.00;100624.34;5070198;28;20265;-76
2022/07/31 02:52:38;;;;;;;0.00;0.00;;;;;;;15.87;100.00;100613.31;5070530;28;20224;-76
2022/07/31 02:55:04;;;;;;;0.00;0.00;;;;;;;15.79;100.00;100619.75;5069811;28;20236;-76
2022/07/31 02:57:30;;;;;;;0.00;0.00;;;;;;;15.69;100.00;100616.28;5074363;28;20174;-76
2022/07/31 02:59:55;;;;;;;0.00;0.00;;;;;;;15.61;100.00;100621.88;5074434;28;20257;-76
2022/07/31 03:02:22;;;;;;;0.00;0.00;;;;;;;15.65;100.00;100618.13;5073177;28;20178;-75
2022/07/31 03:04:47;;;;;;;0.00;0.00;;;;;;;15.67;100.00;100624.09;5074527;28;20627;-76
2022/07/31 03:07:12;;;;;;;0.63;0.63;;;;;;;15.61;100.00;100625.44;5072820;28;20229;-76
2022/07/31 03:09:38;;;;;;;0.00;0.00;;;;;;;15.60;100.00;100617.50;5074145;28;20623;-76
2022/07/31 03:12:04;;;;;;;0.00;0.00;;;;;;;15.57;100.00;100618.16;5073070;28;20193;-77
2022/07/31 03:14:31;;;;;;;0.00;0.00;;;;;;;15.52;100.00;100610.94;5072940;28;20179;-76
2022/07/31 03:16:58;;;;;;;0.10;0.10;;;;;;;15.44;100.00;100614.56;5074158;28;20183;-76
2022/07/31 03:19:24;;;;;;;0.10;0.10;;;;;;;15.34;100.00;100609.50;5074042;28;20679;-76
2022/07/31 03:21:50;;;;;;;0.00;0.00;;;;;;;15.28;100.00;100616.34;5074157;28;20174;-76
2022/07/31 03:24:16;;;;;;;0.00;0.00;;;;;;;15.26;100.00;100611.19;5074206;28;20171;-76
2022/07/31 03:26:42;;;;;;;0.00;0.00;;;;;;;15.25;100.00;100606.03;5073708;28;20209;-75
2022/07/31 03:29:07;;;;;;;0.00;0.00;;;;;;;15.23;100.00;100603.63;5073715;28;20174;-76
2022/07/31 03:31:33;;;;;;;0.20;0.20;;;;;;;15.16;100.00;100603.34;5073844;28;20182;-75
2022/07/31 03:33:59;;;;;;;1.30;1.23;;;;;;;15.13;100.00;100602.09;5073825;28;20171;-76
2022/07/31 03:36:25;;;;;;;0.00;0.00;;;;;;;15.08;100.00;100596.78;5072454;28;20174;-75
2022/07/31 03:38:51;;;;;;;0.00;0.00;;;;;;;15.03;100.00;100598.94;5073354;28;20708;-76
2022/07/31 03:41:16;;;;;;;0.27;0.27;;;;;;;14.99;100.00;100600.75;5073735;28;20170;-76
2022/07/31 03:43:43;;;;;;;0.03;0.03;;;;;;;14.92;100.00;100606.00;5073728;28;20171;-76
2022/07/31 03:46:09;;;;;;;0.33;0.33;;;;;;;14.86;100.00;100597.94;5072819;28;20649;-76
2022/07/31 03:48:34;;;;;;;0.00;0.00;;;;;;;14.83;100.00;100606.88;5073183;28;20174;-74
2022/07/31 03:51:00;;;;;;;0.27;0.27;;;;;;;14.85;100.00;100601.03;5073562;28;20261;-76
2022/07/31 03:53:27;;;;;;;0.10;0.10;;;;;;;14.83;100.00;100606.06;5073545;28;20174;-76
2022/07/31 03:55:54;;;;;;;2.67;1.20;;;;;;;14.86;100.00;100602.66;5072165;28;20170;-76
2022/07/31 03:58:21;;;;;;;0.17;0.17;;;;;;;14.97;100.00;100603.03;5071727;28;20205;-76
2022/07/31 04:00:46;;;;;;;0.00;0.00;;;;;;;15.06;100.00;100607.34;5073289;28;20170;-76
2022/07/31 04:03:12;;;;;;;0.00;0.00;;;;;;;15.13;100.00;100599.34;5072014;28;20227;-77
2022/07/31 04:05:39;;;;;;;0.00;0.00;;;;;;;15.22;100.00;100602.00;5071728;28;20236;-77
2022/07/31 04:08:05;;;;;;;0.00;0.00;;;;;;;15.32;100.00;100598.00;5072907;28;20635;-76
2022/07/31 04:10:31;;;;;;;0.00;0.00;;;;;;;15.36;100.00;100607.22;5073150;28;20453;-78
2022/07/31 04:12:56;;;;;;;0.00;0.00;;;;;;;15.46;100.00;100598.50;5073245;28;20595;-77
2022/07/31 04:15:22;;;;;;;0.00;0.00;;;;;;;15.45;100.00;100600.47;5071621;28;20182;-77
2022/07/31 04:17:47;;;;;;;0.00;0.00;;;;;;;15.58;100.00;100604.06;5072937;28;20170;-77
2022/07/31 04:20:13;;;;;;;0.00;0.00;;;;;;;15.63;100.00;100603.09;5072840;28;20236;-76
2022/07/31 04:22:38;;;;;;;0.00;0.00;;;;;;;15.77;100.00;100606.31;5073037;28;20548;-77
2022/07/31 04:25:04;;;;;;;0.00;0.00;;;;;;;15.88;100.00;100607.47;5072778;28;20177;-76
2022/07/31 04:27:30;;;;;;;0.00;0.00;;;;;;;15.97;100.00;100605.41;5072808;28;20194;-75
2022/07/31 04:29:59;;;;;;;0.00;0.00;;;;;;;16.05;100.00;100606.44;5072496;28;20257;-77
2022/07/31 04:32:24;;;;;;;0.00;0.00;;;;;;;16.05;100.00;100601.72;5071563;28;20175;-77
2022/07/31 04:34:50;;;;;;;0.00;0.00;;;;;;;16.18;100.00;100616.31;5072823;28;20534;-77
2022/07/31 04:37:18;;;;;;;0.00;0.00;;;;;;;16.28;100.00;100606.78;5071211;28;20189;-77
2022/07/31 04:39:44;;;;;;;0.00;0.00;;;;;;;16.23;100.00;100607.03;5072623;28;20181;-76
2022/07/31 04:42:09;;;;;;;0.00;0.00;;;;;;;16.23;100.00;100609.78;5072917;28;20171;-76
2022/07/31 04:44:34;;;;;;;0.00;0.00;;;;;;;16.36;100.00;100606.69;5067807;28;20206;-77
2022/07/31 04:47:02;;;;;;;0.00;0.00;;;;;;;16.40;100.00;100605.97;5070760;28;20195;-75
2022/07/31 04:49:29;;;;;;;0.00;0.00;;;;;;;16.44;100.00;100601.38;5070796;28;20536;-77
2022/07/31 04:51:54;;;;;;;0.00;0.00;;;;;;;16.57;100.00;100611.22;5072276;28;20209;-77
2022/07/31 04:54:20;;;;;;;0.00;0.00;;;;;;;16.64;100.00;100615.03;5071058;28;20209;-77
2022/07/31 04:56:47;;;;;;;0.00;0.00;;;;;;;16.70;100.00;100610.09;5072095;28;20174;-76
2022/07/31 04:59:14;;;;;;;0.00;0.00;;;;;;;16.72;100.00;100607.78;5071986;28;20200;-76
2022/07/31 05:01:41;;;;;;;0.00;0.00;;;;;;;16.73;100.00;100614.09;5070976;28;20174;-76
2022/07/31 05:04:08;;;;;;;0.00;0.00;;;;;;;16.79;100.00;100616.28;5072279;28;20198;-76
2022/07/31 05:06:34;;;;;;;0.00;0.00;;;;;;;16.83;100.00;100611.66;5072229;28;20468;-78
2022/07/31 05:09:00;;;;;;;0.00;0.00;;;;;;;16.89;100.00;100621.28;5071870;28;20166;-77
2022/07/31 05:11:25;;;;;;;0.00;0.00;;;;;;;16.90;100.00;100620.13;5071947;28;20646;-76
2022/07/31 05:13:53;;;;;;;0.00;0.00;;;;;;;16.95;100.00;100624.63;5071901;28;20265;-76
2022/07/31 05:16:19;;;;;;;0.00;0.00;;;;;;;16.99;100.00;100631.06;5071826;28;20170;-77
2022/07/31 05:18:45;;;;;;;0.00;0.00;;;;;;;17.01;100.00;100620.47;5070780;28;20221;-76
2022/07/31 05:21:12;;;;;;;0.00;0.00;;;;;;;17.08;100.00;100633.69;5071739;28;20177;-77
2022/07/31 05:23:39;;;;;;;0.00;0.00;;;;;;;17.12;100.00;100635.38;5071774;28;20175;-77
2022/07/31 05:26:04;;;;;;;0.10;0.10;;;;;;;16.89;100.00;100624.06;5071602;28;20206;-77
2022/07/31 05:28:30;;;;;;;0.00;0.00;;;;;;;16.75;100.00;100620.06;5071284;28;20177;-76
2022/07/31 05:30:55;;;;;;;0.00;0.00;;;;;;;16.69;100.00;100624.22;5071713;28;20174;-77
2022/07/31 05:33:20;;;;;;;6.10;5.93;;;;;;;16.65;100.00;100618.59;5070324;28;20543;-77
2022/07/31 05:35:46;;;;;;;0.00;0.00;;;;;;;16.60;100.00;100622.38;5071605;28;20174;-76
2022/07/31 05:38:11;;;;;;;0.00;0.00;;;;;;;16.63;100.00;100618.91;5069785;28;20231;-77
2022/07/31 05:40:36;;;;;;;0.00;0.00;;;;;;;16.61;100.00;100607.41;5071576;28;20224;-77
2022/07/31 05:43:02;;;;;;;0.00;0.00;;;;;;;16.65;100.00;100608.34;5069992;28;20174;-76
2022/07/31 05:45:28;;;;;;;0.00;0.00;;;;;;;16.66;100.00;100612.72;5070541;28;20546;-77
2022/07/31 05:47:53;;;;;;;0.00;0.00;;;;;;;16.68;100.00;100600.56;5069942;28;20198;-77
2022/07/31 05:50:19;;;;;;;0.00;0.00;;;;;;;16.70;100.00;100601.81;5069811;28;20334;-77
2022/07/31 05:52:44;;;;;;;0.00;0.00;;;;;;;16.82;100.00;100603.75;5069954;28;20630;-77
2022/07/31 05:55:10;;;;;;;0.00;0.00;;;;;;;16.90;100.00;100597.25;5071204;28;20245;-76
2022/07/31 05:57:35;;;;;;;0.00;0.00;;;;;;;17.00;100.00;100609.78;5071140;28;20167;-77
2022/07/31 06:00:01;;;;;;;0.00;0.00;;;;;;;17.18;100.00;100597.28;5070889;28;20170;-76
2022/07/31 06:02:26;;;;;;;0.00;0.00;;;;;;;17.36;100.00;100600.50;5071105;28;20324;-77
2022/07/31 06:04:51;;;;;;;0.00;0.00;;;;;;;17.47;100.00;100605.16;5069668;28;20206;-77
2022/07/31 06:07:16;;;;;;;0.00;0.00;;;;;;;17.62;100.00;100606.34;5070735;28;20285;-77
2022/07/31 06:09:42;;;;;;;0.00;0.00;;;;;;;17.73;100.00;100603.91;5071052;28;20209;-77
2022/07/31 06:12:07;;;;;;;0.10;0.10;;;;;;;17.90;100.00;100597.22;5071153;28;20170;-76
2022/07/31 06:14:33;;;;;;;0.00;0.00;;;;;;;18.01;100.00;100592.75;5071028;28;20181;-77
2022/07/31 06:16:58;;;;;;;0.00;0.00;;;;;;;18.05;100.00;100596.41;5070841;28;20771;-77
2022/07/31 06:19:23;;;;;;;0.00;0.00;;;;;;;18.05;100.00;100597.22;5070699;28;20181;-76
2022/07/31 06:21:49;;;;;;;0.00;0.00;;;;;;;18.15;100.00;100590.34;5070814;28;20174;-78
2022/07/31 06:24:14;;;;;;;0.00;0.00;;;;;;;18.20;100.00;100587.28;5071126;28;20495;-77
2022/07/31 06:26:39;;;;;;;0.00;0.00;;;;;;;18.17;100.00;100584.44;5069288;28;20209;-77
2022/07/31 06:29:05;;;;;;;0.47;0.47;;;;;;;18.11;100.00;100590.25;5069252;28;20549;-77
2022/07/31 06:31:30;;;;;;;0.00;0.00;;;;;;;18.14;100.00;100583.22;5070896;28;20170;-76
2022/07/31 06:33:55;;;;;;;0.00;0.00;;;;;;;18.16;100.00;100582.84;5069451;28;20261;-76
2022/07/31 06:36:21;;;;;;;0.00;0.00;;;;;;;18.27;100.00;100586.66;5070257;28;20858;-76
2022/07/31 06:38:46;;;;;;;0.00;0.00;;;;;;;18.44;100.00;100597.34;5068787;28;20186;-75
2022/07/31 06:41:43;;;;;;;0.00;0.00;;;;;;;18.66;99.37;100590.31;5070736;28;20166;-75
2022/07/31 06:43:57;;;;;;;0.00;0.00;;;;;;;18.85;97.75;100595.91;5070000;28;20250;-77
2022/07/31 06:46:22;;;;;;;0.00;0.00;;;;;;;18.99;96.24;100592.63;5069180;28;20297;-75
2022/07/31 06:48:48;;;;;;;0.00;0.00;;;;;;;19.01;95.46;100593.84;5069744;28;20867;-76
2022/07/31 06:51:13;;;;;;;0.00;0.00;;;;;;;19.10;96.15;100595.63;5070087;28;20194;-76
2022/07/31 06:53:38;;;;;;;0.00;0.00;;;;;;;19.10;94.95;100598.38;5068676;28;20192;-81
2022/07/31 06:56:03;;;;;;;0.00;0.00;;;;;;;19.09;93.50;100594.78;5072191;28;20186;-81
2022/07/31 06:58:30;;;;;;;0.00;0.00;;;;;;;19.15;93.72;100592.53;5071409;28;20182;-80
2022/07/31 07:00:56;;;;;;;0.00;0.00;;;;;;;19.21;94.04;100596.59;5069127;28;20198;-82
2022/07/31 07:03:21;;;;;;;0.00;0.00;;;;;;;19.34;92.37;100598.06;5070566;28;20343;-79
2022/07/31 07:05:46;;;;;;;0.00;0.00;;;;;;;19.50;89.98;100600.72;5070544;28;20198;-82
2022/07/31 07:08:12;;;;;;;0.00;0.00;;;;;;;19.71;87.44;100603.13;5070276;28;20221;-81
2022/07/31 07:10:37;;;;;;;0.30;0.30;;;;;;;19.84;85.12;100599.00;5070486;28;20803;-80
2022/07/31 07:13:02;;;;;;;0.67;0.67;;;;;;;19.96;83.07;100598.78;5070348;28;20216;-79
2022/07/31 07:15:28;;;;;;;0.10;0.10;;;;;;;20.06;81.63;100598.16;5070158;28;20179;-80
2022/07/31 07:17:53;;;;;;;0.00;0.00;;;;;;;20.11;81.33;100600.66;5068794;28;20275;-81
2022/07/31 07:20:18;;;;;;;0.00;0.00;;;;;;;20.23;81.38;100596.84;5068757;28;20182;-81
2022/07/31 07:22:44;;;;;;;0.50;0.50;;;;;;;20.29;78.99;100591.78;5068926;28;20167;-80
2022/07/31 07:25:11;;;;;;;0.63;0.63;;;;;;;20.37;79.96;100593.47;5070211;28;20171;-80
2022/07/31 07:27:36;;;;;;;0.10;0.10;;;;;;;20.40;80.32;100593.56;5070063;28;20193;-80
2022/07/31 07:30:02;;;;;;;0.00;0.00;;;;;;;20.49;80.00;100601.63;5069918;28;20614;-81
2022/07/31 07:32:28;;;;;;;0.00;0.00;;;;;;;20.62;81.37;100594.66;5070228;28;20179;-81
2022/07/31 07:34:53;;;;;;;0.83;0.83;;;;;;;20.72;81.68;100596.81;5068822;28;20323;-80
2022/07/31 07:37:18;;;;;;;0.00;0.00;;;;;;;20.75;81.28;100596.03;5070136;28;20183;-80
2022/07/31 07:39:44;;;;;;;0.00;0.00;;;;;;;20.81;80.43;100590.94;5067351;28;20190;-79
2022/07/31 07:42:09;;;;;;;0.10;0.10;;;;;;;20.85;77.80;100583.47;5071967;28;20187;-79
2022/07/31 07:44:34;;;;;;;0.00;0.00;;;;;;;20.94;77.51;100589.53;5071454;28;20210;-79
2022/07/31 07:47:00;;;;;;;0.17;0.17;;;;;;;21.03;76.95;100584.50;5072282;28;20214;-79
2022/07/31 07:49:25;;;;;;;0.00;0.00;;;;;;;21.18;76.91;100579.91;5068047;28;20184;-79
2022/07/31 07:51:50;;;;;;;0.00;0.00;;;;;;;21.35;75.44;100596.00;5067866;28;20227;-80
2022/07/31 07:54:16;;;;;;;0.17;0.17;;;;;;;21.47;75.59;100589.38;5072051;28;20629;-80
2022/07/31 07:56:44;;;;;;;0.00;0.00;;;;;;;21.53;73.16;100592.59;5073415;28;20275;-80
2022/07/31 07:59:09;;;;;;;0.00;0.00;;;;;;;21.62;71.94;100582.75;5073231;28;20247;-79
2022/07/31 08:01:35;;;;;;;0.40;0.40;;;;;;;21.77;70.27;100578.13;5073293;28;20615;-79
2022/07/31 08:04:00;;;;;;;1.50;0.67;;;;;;;21.73;68.49;100573.72;5073707;28;20174;-80
2022/07/31 08:06:26;;;;;;;0.33;0.33;;;;;;;21.78;68.17;100571.38;5073120;28;20605;-78
2022/07/31 08:08:51;;;;;;;0.23;0.23;;;;;;;21.76;67.78;100565.41;5071524;28;20178;-78
2022/07/31 08:11:17;;;;;;;0.00;0.00;;;;;;;21.79;68.49;100566.63;5072052;28;20221;-79
2022/07/31 08:13:42;;;;;;;0.00;0.00;;;;;;;21.83;68.01;100554.31;5073148;28;20178;-79
2022/07/31 08:16:07;;;;;;;0.57;0.57;;;;;;;21.81;66.71;100551.13;5073174;28;20176;-78
2022/07/31 08:18:33;;;;;;;0.00;0.00;;;;;;;21.78;67.88;100551.91;5071671;28;20175;-80
2022/07/31 08:20:58;;;;;;;0.13;0.13;;;;;;;21.81;67.42;100547.56;5071702;28;20186;-82
2022/07/31 08:23:23;;;;;;;0.17;0.17;;;;;;;21.95;67.56;100550.44;5072933;28;20176;-79
2022/07/31 08:25:49;;;;;;;0.33;0.33;;;;;;;22.01;66.74;100540.56;5071483;28;20293;-79
2022/07/31 08:28:14;;;;;;;0.30;0.30;;;;;;;22.11;65.48;100545.44;5068584;28;20198;-79
2022/07/31 08:30:40;;;;;;;0.10;0.10;;;;;;;22.14;65.08;100549.44;5072990;28;20186;-79
2022/07/31 08:33:05;;;;;;;0.10;0.10;;;;;;;22.25;64.69;100542.75;5072783;28;20221;-80
2022/07/31 08:35:31;;;;;;;0.67;0.67;;;;;;;22.32;64.13;100547.56;5071379;28;20192;-78
2022/07/31 08:37:56;;;;;;;0.47;0.23;;;;;;;22.36;63.13;100536.44;5072569;28;20539;-79
2022/07/31 08:40:24;;;;;;;0.67;0.23;;;;;;;22.29;62.06;100537.22;5070968;28;20283;-79
2022/07/31 08:42:49;;;;;;;0.30;0.23;;;;;;;22.38;62.84;100532.06;5072762;28;20638;-77
2022/07/31 08:45:15;;;;;;;0.20;0.20;;;;;;;22.39;60.47;100532.88;5071776;28;20207;-79
2022/07/31 08:47:43;;;;;;;0.97;0.50;;;;;;;22.44;60.30;100533.31;5071107;28;20181;-79
2022/07/31 08:50:12;;;;;;;0.50;0.50;;;;;;;22.52;61.24;100536.94;5070851;28;20183;-78
2022/07/31 08:52:39;;;;;;;0.40;0.40;;;;;;;22.57;61.42;100531.00;5071526;28;20163;-79
2022/07/31 08:55:08;;;;;;;4.80;0.30;;;;;;;22.63;61.81;100529.44;5072202;28;20623;-77
2022/07/31 08:57:34;;;;;;;0.17;0.17;;;;;;;22.62;60.88;100533.41;5072253;28;20179;-78
2022/07/31 09:00:00;;;;;;;0.03;0.03;;;;;;;22.78;61.09;100530.28;5070640;28;20257;-76
2022/07/31 09:02:25;;;;;;;0.90;0.90;;;;;;;22.74;57.84;100521.91;5070889;28;20171;-77
2022/07/31 09:04:50;;;;;;;0.10;0.00;;;;;;;22.73;57.36;100528.69;5072120;28;20239;-78
2022/07/31 09:07:16;;;;;;;0.30;0.30;;;;;;;22.75;58.66;100519.94;5071751;28;20203;-77
2022/07/31 09:09:42;;;;;;;0.10;0.10;;;;;;;22.82;59.96;100526.34;5070645;28;20182;-79
2022/07/31 09:12:08;;;;;;;0.00;0.00;;;;;;;22.86;59.06;100518.00;5072030;28;20631;-78
2022/07/31 09:14:34;;;;;;;0.00;0.00;;;;;;;22.98;58.75;100514.03;5072361;28;20249;-78
2022/07/31 09:17:02;;;;;;;0.00;0.00;;;;;;;23.11;58.98;100515.28;5070580;28;20232;-79
2022/07/31 09:19:38;;;;;;;0.00;0.00;;;;;;;23.22;58.33;100515.31;5071755;28;20174;-78
2022/07/31 09:22:04;;;;;;;4.53;1.07;;;;;;;23.25;57.06;100506.94;5071930;28;20228;-78
2022/07/31 09:24:31;;;;;;;1.07;1.07;;;;;;;23.25;54.96;100514.50;5071775;28;20170;-74
2022/07/31 09:27:08;;;;;;;0.00;0.00;;;;;;;23.24;55.35;100505.34;5071513;28;20233;-74
2022/07/31 09:29:38;;;;;;;0.10;0.10;;;;;;;23.29;56.57;100507.75;5071801;28;20168;-74
2022/07/31 09:32:10;;;;;;;0.33;0.33;;;;;;;23.45;56.73;100501.81;5071641;28;20178;-75
2022/07/31 09:34:36;;;;;;;0.20;0.20;;;;;;;23.57;56.60;100507.00;5071540;28;20225;-75
2022/07/31 09:37:08;;;;;;;0.00;0.00;;;;;;;23.63;54.39;100502.63;5071247;28;20653;-75
2022/07/31 09:39:34;;;;;;;0.33;0.33;;;;;;;23.59;53.17;100501.84;5071357;28;20168;-75
2022/07/31 09:41:59;;;;;;;0.00;0.00;;;;;;;23.55;54.43;100500.19;5071382;28;20203;-75
2022/07/31 09:44:34;;;;;;;1.10;0.73;;;;;;;23.50;54.58;100506.97;5070560;28;20170;-74
2022/07/31 09:47:00;;;;;;;0.00;0.00;;;;;;;23.52;54.50;100501.00;5069946;28;20289;-75
2022/07/31 09:49:33;;;;;;;0.00;0.00;;;;;;;23.58;54.04;100497.47;5069850;28;20261;-75
2022/07/31 09:52:01;;;;;;;0.00;0.00;;;;;;;23.69;54.46;100503.00;5069907;28;20182;-74
2022/07/31 09:54:28;;;;;;;0.00;0.00;;;;;;;23.69;53.52;100494.63;5071231;28;20175;-75
2022/07/31 09:56:55;;;;;;;0.00;0.00;;;;;;;23.82;54.60;100492.25;5069651;28;20224;-74
2022/07/31 09:59:20;;;;;;;0.00;0.00;;;;;;;24.03;55.56;100489.44;5070882;28;20181;-75
2022/07/31 10:01:47;;;;;;;0.00;0.00;;;;;;;24.19;54.80;100492.59;5069829;28;20163;-74
2022/07/31 10:04:16;;;;;;;0.30;0.30;;;;;;;24.27;55.02;100484.97;5070717;28;20158;-76
2022/07/31 10:06:45;;;;;;;0.00;0.00;;;;;;;24.36;53.57;100482.59;5070809;28;20609;-75
2022/07/31 10:09:13;;;;;;;0.00;0.00;;;;;;;24.37;54.24;100473.00;5071101;28;20175;-76
2022/07/31 10:11:38;;;;;;;0.00;0.00;;;;;;;24.65;54.53;100474.09;5071053;28;20178;-75
2022/07/31 10:14:12;;;;;;;0.07;0.03;;;;;;;24.87;51.09;100467.16;5069652;28;20174;-76
2022/07/31 10:16:39;;;;;;;0.43;0.20;;;;;;;24.83;49.25;100470.00;5069497;28;20649;-75
2022/07/31 10:19:10;;;;;;;0.00;0.00;;;;;;;24.83;49.45;100458.81;5070790;28;20174;-75
2022/07/31 10:21:41;;;;;;;0.10;0.10;;;;;;;24.87;49.80;100461.56;5069487;28;20175;-75
2022/07/31 10:24:08;;;;;;;0.00;0.00;;;;;;;25.06;52.25;100463.91;5070674;28;20162;-75
2022/07/31 10:26:34;;;;;;;0.47;0.47;;;;;;;25.16;50.97;100462.22;5069145;28;20205;-75
2022/07/31 10:28:59;;;;;;;0.00;0.00;;;;;;;24.93;48.41;100457.97;5070741;28;20162;-74
2022/07/31 10:31:25;;;;;;;0.00;0.00;;;;;;;24.86;50.48;100455.19;5069456;28;20166;-74
2022/07/31 10:33:51;;;;;;;0.20;0.20;;;;;;;24.90;51.14;100460.78;5069319;28;20174;-74
2022/07/31 10:36:27;;;;;;;0.00;0.00;;;;;;;24.97;51.89;100457.13;5069165;28;20173;-76
2022/07/31 10:39:23;;;;;;;0.00;0.00;;;;;;;25.12;50.91;100445.47;5070387;28;20303;-75
2022/07/31 10:42:05;;;;;;;1.10;0.90;;;;;;;25.25;50.12;100439.38;5063493;28;20666;-78
2022/07/31 10:44:44;;;;;;;0.27;0.27;;;;;;;25.23;51.72;100444.59;5069379;28;20193;-74
2022/07/31 10:47:13;;;;;;;0.00;0.00;;;;;;;25.20;51.35;100437.84;5070284;28;20266;-73
2022/07/31 10:49:48;;;;;;;0.40;0.40;;;;;;;25.08;50.84;100432.72;5068915;28;20175;-74
2022/07/31 10:52:25;;;;;;;0.67;0.67;;;;;;;24.99;52.23;100446.34;5070605;28;20178;-74
2022/07/31 10:54:50;;;;;;;0.00;0.00;;;;;;;25.02;52.75;100429.56;5070876;28;20173;-74
2022/07/31 10:57:30;;;;;;;0.47;0.47;;;;;;;25.13;51.97;100440.66;5068997;28;20174;-74
2022/07/31 11:00:06;;;;;;;0.87;0.73;;;;;;;25.12;52.90;100430.69;5070241;28;20174;-73
2022/07/31 11:02:33;;;;;;;0.00;0.00;;;;;;;25.26;52.44;100430.59;5067621;28;20681;-73
2022/07/31 11:05:09;;;;;;;0.10;0.10;;;;;;;25.29;49.91;100423.38;5070180;28;20209;-74
2022/07/31 11:07:34;;;;;;;0.23;0.23;;;;;;;25.39;51.57;100416.91;5070378;28;20194;-74
2022/07/31 11:10:20;;;;;;;0.00;0.00;;;;;;;25.56;51.32;100417.94;5070186;28;20171;-74
2022/07/31 11:13:06;;;;;;;0.00;0.00;;;;;;;25.57;50.59;100411.91;5069083;28;20570;-74
2022/07/31 11:15:33;;;;;;;0.63;0.63;;;;;;;25.55;50.04;100413.56;5070225;28;20182;-74
2022/07/31 11:18:10;;;;;;;0.00;0.00;;;;;;;25.56;48.13;100415.13;5073700;28;20181;-74
2022/07/31 11:20:35;;;;;;;0.00;0.00;;;;;;;25.56;46.18;100399.16;5072885;28;20377;-75